Time;durP1;ratioP1;P1;durP2;ratioP2;P2;SDS_P1;SDS_P2;PMS_P1;PMS_P2;Temp;Humidity;BMP_temperature;BMP_pressure;BME280_temperature;BME280_humidity;BME280_pressure;Samples;Min_cycle;Max_cycle;Signal;HPM_P1;HPM_P2
2023/12/01 00:00:45;;;;;;;77.10;30.23;;;;;;;;;;4933351;29;20046;-60
2023/12/01 00:03:11;;;;;;;84.30;30.42;;;;;;;;;;4934653;29;20118;-59
2023/12/01 00:05:37;;;;;;;80.65;32.00;;;;;;;;;;4932813;29;20050;-61
2023/12/01 00:08:03;;;;;;;83.53;32.15;;;;;;;;;;4932295;29;20047;-59
2023/12/01 00:10:30;;;;;;;72.57;31.48;;;;;;;;;;4933878;29;20499;-60
2023/12/01 00:12:56;;;;;;;76.40;31.42;;;;;;;;;;4934806;29;20039;-59
2023/12/01 00:15:22;;;;;;;77.28;32.17;;;;;;;;;;4933848;29;20043;-63
2023/12/01 00:17:48;;;;;;;78.82;31.27;;;;;;;;;;4932056;29;20036;-62
2023/12/01 00:20:14;;;;;;;75.07;30.30;;;;;;;;;;4932587;29;20055;-60
2023/12/01 00:22:40;;;;;;;71.60;30.90;;;;;;;;;;4932965;29;20620;-59
2023/12/01 00:25:07;;;;;;;66.85;28.50;;;;;;;;;;4934669;29;20047;-59
2023/12/01 00:27:33;;;;;;;74.43;30.05;;;;;;;;;;4928823;29;20060;-59
2023/12/01 00:29:59;;;;;;;73.32;30.83;;;;;;;;;;4932858;29;20056;-60
2023/12/01 00:32:25;;;;;;;76.13;29.88;;;;;;;;;;4932450;29;20040;-60
2023/12/01 00:34:51;;;;;;;66.65;29.80;;;;;;;;;;4928969;29;20047;-60
2023/12/01 00:37:31;;;;;;;73.60;29.85;;;;;;;;;;4931625;29;20055;-60
2023/12/01 00:39:57;;;;;;;64.28;28.02;;;;;;;;;;4931856;29;20055;-60
2023/12/01 00:42:23;;;;;;;62.72;27.10;;;;;;;;;;4933927;29;20048;-60
2023/12/01 00:44:50;;;;;;;68.10;29.98;;;;;;;;;;4926664;29;20047;-59
2023/12/01 00:47:16;;;;;;;67.32;28.15;;;;;;;;;;4933132;29;20054;-60
2023/12/01 00:49:42;;;;;;;70.35;29.38;;;;;;;;;;4933460;29;20039;-59
2023/12/01 00:52:08;;;;;;;74.15;32.00;;;;;;;;;;4932042;29;20044;-58
2023/12/01 00:54:34;;;;;;;74.00;30.45;;;;;;;;;;4932528;29;20039;-59
2023/12/01 00:57:00;;;;;;;76.88;29.90;;;;;;;;;;4933281;29;20050;-60
2023/12/01 00:59:27;;;;;;;67.70;29.13;;;;;;;;;;4932623;29;20056;-60
2023/12/01 01:01:53;;;;;;;69.72;29.92;;;;;;;;;;4932187;29;20411;-61
2023/12/01 01:04:19;;;;;;;72.75;29.95;;;;;;;;;;4930267;29;20047;-59
2023/12/01 01:06:45;;;;;;;69.15;27.92;;;;;;;;;;4928188;29;20058;-59
2023/12/01 01:09:11;;;;;;;62.08;28.15;;;;;;;;;;4931548;29;20047;-60
2023/12/01 01:11:37;;;;;;;66.88;29.15;;;;;;;;;;4932511;29;20068;-60
2023/12/01 01:14:03;;;;;;;70.78;28.02;;;;;;;;;;4932939;29;20047;-59
2023/12/01 01:16:29;;;;;;;67.25;26.45;;;;;;;;;;4932921;29;20042;-59
2023/12/01 01:18:55;;;;;;;65.80;28.23;;;;;;;;;;4932392;29;20385;-60
2023/12/01 01:21:23;;;;;;;62.45;27.20;;;;;;;;;;4923080;29;20423;-58
2023/12/01 01:23:49;;;;;;;64.03;28.52;;;;;;;;;;4932011;29;20043;-60
2023/12/01 01:26:15;;;;;;;67.38;28.92;;;;;;;;;;4931383;29;20051;-59
2023/12/01 01:28:41;;;;;;;60.38;26.45;;;;;;;;;;4931657;29;20051;-59
2023/12/01 01:31:07;;;;;;;65.20;27.98;;;;;;;;;;4931048;29;20051;-60
2023/12/01 01:33:36;;;;;;;66.82;27.65;;;;;;;;;;4930776;29;20047;-59
2023/12/01 01:36:02;;;;;;;63.47;26.92;;;;;;;;;;4927115;29;20530;-58
2023/12/01 01:38:29;;;;;;;66.93;26.67;;;;;;;;;;4931757;29;20043;-59
2023/12/01 01:40:55;;;;;;;59.58;27.30;;;;;;;;;;4930322;29;20051;-59
2023/12/01 01:43:23;;;;;;;60.80;25.40;;;;;;;;;;4931436;29;20487;-59
2023/12/01 01:46:00;;;;;;;60.35;27.08;;;;;;;;;;4931742;29;20051;-60
2023/12/01 01:48:28;;;;;;;55.88;27.08;;;;;;;;;;4926053;29;20059;-58
2023/12/01 01:50:54;;;;;;;57.70;26.00;;;;;;;;;;4931757;29;20062;-60
2023/12/01 01:53:21;;;;;;;61.38;26.40;;;;;;;;;;4931875;29;20051;-59
2023/12/01 01:55:47;;;;;;;58.78;25.27;;;;;;;;;;4931225;29;20031;-59
2023/12/01 01:58:14;;;;;;;63.60;26.48;;;;;;;;;;4930817;29;20055;-58
2023/12/01 02:00:40;;;;;;;54.92;25.23;;;;;;;;;;4931077;29;20046;-59
2023/12/01 02:03:06;;;;;;;58.92;25.15;;;;;;;;;;4931796;29;20044;-59
2023/12/01 02:05:34;;;;;;;63.20;27.30;;;;;;;;;;4931387;29;20062;-62
2023/12/01 02:08:39;;;;;;;56.58;25.88;;;;;;;;;;4932602;29;20046;-59
2023/12/01 02:11:05;;;;;;;58.58;25.30;;;;;;;;;;4888355;29;20188;-59
2023/12/01 02:13:32;;;;;;;57.15;24.45;;;;;;;;;;4874379;29;20048;-59
2023/12/01 02:16:01;;;;;;;59.17;25.92;;;;;;;;;;4908290;29;20050;-60
2023/12/01 02:18:33;;;;;;;61.90;26.93;;;;;;;;;;4928568;29;20070;-58
2023/12/01 02:21:00;;;;;;;55.83;24.02;;;;;;;;;;4929818;29;20052;-60
2023/12/01 02:23:26;;;;;;;62.17;25.67;;;;;;;;;;4931458;29;20476;-59
2023/12/01 02:25:53;;;;;;;63.67;27.15;;;;;;;;;;4929755;29;20076;-58
2023/12/01 02:28:19;;;;;;;69.40;27.45;;;;;;;;;;4930595;29;20036;-59
2023/12/01 02:30:51;;;;;;;59.03;25.85;;;;;;;;;;4930849;29;20048;-58
2023/12/01 02:33:18;;;;;;;62.83;27.48;;;;;;;;;;4931244;29;20051;-59
2023/12/01 02:35:49;;;;;;;57.83;25.70;;;;;;;;;;4930210;29;20035;-59
2023/12/01 02:38:16;;;;;;;65.65;27.83;;;;;;;;;;4929925;29;20423;-59
2023/12/01 02:40:43;;;;;;;61.55;26.83;;;;;;;;;;4930430;29;20051;-60
2023/12/01 02:43:13;;;;;;;62.15;26.80;;;;;;;;;;4929847;29;20043;-59
2023/12/01 02:45:39;;;;;;;61.75;26.25;;;;;;;;;;4930390;29;20427;-59
2023/12/01 02:48:06;;;;;;;56.00;24.45;;;;;;;;;;4930553;29;20048;-59
2023/12/01 02:50:33;;;;;;;52.67;24.60;;;;;;;;;;4931069;29;20035;-59
2023/12/01 02:53:00;;;;;;;64.65;25.85;;;;;;;;;;4930340;29;20043;-60
2023/12/01 02:55:27;;;;;;;61.08;25.58;;;;;;;;;;4928753;29;20050;-59
2023/12/01 02:57:53;;;;;;;54.50;25.17;;;;;;;;;;4930520;29;20427;-61
2023/12/01 03:00:20;;;;;;;56.55;25.38;;;;;;;;;;4929749;29;20031;-60
2023/12/01 03:02:46;;;;;;;48.53;22.52;;;;;;;;;;4931469;29;20059;-60
2023/12/01 03:05:12;;;;;;;50.25;24.27;;;;;;;;;;4930022;29;20055;-59
2023/12/01 03:07:39;;;;;;;68.85;28.50;;;;;;;;;;4929294;29;20044;-60
2023/12/01 03:10:07;;;;;;;77.45;30.88;;;;;;;;;;4931436;29;20052;-59
2023/12/01 03:12:34;;;;;;;110.00;36.88;;;;;;;;;;4930878;29;20071;-58
2023/12/01 03:15:00;;;;;;;80.05;32.72;;;;;;;;;;4931031;29;20044;-60
2023/12/01 03:17:26;;;;;;;76.35;30.27;;;;;;;;;;4928504;29;20050;-59
2023/12/01 03:19:53;;;;;;;61.80;26.17;;;;;;;;;;4925248;29;20031;-60
2023/12/01 03:22:19;;;;;;;58.83;26.15;;;;;;;;;;4931257;29;20046;-60
2023/12/01 03:24:47;;;;;;;52.38;24.35;;;;;;;;;;4930896;29;20066;-59
2023/12/01 03:27:14;;;;;;;56.45;25.60;;;;;;;;;;4930302;29;20460;-60
2023/12/01 03:29:41;;;;;;;59.40;25.42;;;;;;;;;;4930732;29;20094;-61
2023/12/01 03:32:07;;;;;;;57.20;24.92;;;;;;;;;;4928963;29;20511;-60
2023/12/01 03:34:34;;;;;;;54.75;25.50;;;;;;;;;;4922190;29;20055;-60
2023/12/01 03:37:02;;;;;;;57.15;25.45;;;;;;;;;;4928961;29;20047;-60
2023/12/01 03:39:28;;;;;;;51.55;25.10;;;;;;;;;;4928550;29;20082;-59
2023/12/01 03:41:54;;;;;;;63.65;25.75;;;;;;;;;;4930500;29;20504;-59
2023/12/01 03:44:20;;;;;;;58.22;25.05;;;;;;;;;;4914471;29;20047;-59
2023/12/01 03:46:47;;;;;;;60.03;25.60;;;;;;;;;;4929221;29;20515;-59
2023/12/01 03:49:14;;;;;;;54.67;24.05;;;;;;;;;;4930383;29;20047;-59
2023/12/01 03:51:40;;;;;;;56.05;24.80;;;;;;;;;;4932477;29;20047;-58
2023/12/01 03:54:06;;;;;;;52.72;23.27;;;;;;;;;;4934391;29;20068;-59
2023/12/01 03:56:36;;;;;;;52.22;23.80;;;;;;;;;;4933047;29;20036;-59
2023/12/01 03:59:09;;;;;;;52.30;22.95;;;;;;;;;;4933191;29;20047;-59
2023/12/01 04:01:38;;;;;;;51.67;24.00;;;;;;;;;;4948483;28;20054;-59
2023/12/01 04:04:05;;;;;;;49.28;23.52;;;;;;;;;;4934017;29;20052;-61
2023/12/01 04:06:34;;;;;;;55.15;25.52;;;;;;;;;;4933686;29;20036;-59
2023/12/01 04:09:05;;;;;;;53.85;24.02;;;;;;;;;;4933536;29;20475;-59
2023/12/01 04:11:32;;;;;;;52.58;23.63;;;;;;;;;;4932762;29;20035;-59
2023/12/01 04:13:59;;;;;;;51.15;23.55;;;;;;;;;;4933170;29;20047;-59
2023/12/01 04:16:25;;;;;;;54.70;23.85;;;;;;;;;;4933698;29;20071;-59
2023/12/01 04:18:52;;;;;;;54.70;24.65;;;;;;;;;;4931448;29;20054;-59
2023/12/01 04:21:18;;;;;;;52.95;24.58;;;;;;;;;;4934032;29;20043;-60
2023/12/01 04:23:44;;;;;;;52.47;24.00;;;;;;;;;;4934642;29;20047;-59
2023/12/01 04:26:12;;;;;;;53.00;22.70;;;;;;;;;;4931459;29;20163;-60
2023/12/01 04:28:38;;;;;;;56.60;24.90;;;;;;;;;;4932887;29;20059;-59
2023/12/01 04:31:05;;;;;;;53.97;24.63;;;;;;;;;;4932751;29;20048;-61
2023/12/01 04:33:32;;;;;;;55.00;24.75;;;;;;;;;;4932994;29;20051;-60
2023/12/01 04:35:58;;;;;;;56.85;25.15;;;;;;;;;;4928637;29;20399;-60
2023/12/01 04:38:24;;;;;;;55.33;24.23;;;;;;;;;;4932704;29;20055;-60
2023/12/01 04:40:50;;;;;;;53.78;23.35;;;;;;;;;;4932109;29;20051;-59
2023/12/01 04:43:19;;;;;;;56.53;24.95;;;;;;;;;;4934897;29;20040;-60
2023/12/01 04:45:45;;;;;;;56.20;23.52;;;;;;;;;;4933175;29;20035;-60
2023/12/01 04:48:11;;;;;;;54.88;23.25;;;;;;;;;;4932446;29;20051;-59
2023/12/01 04:50:47;;;;;;;52.72;22.30;;;;;;;;;;4931755;29;20067;-59
2023/12/01 04:53:13;;;;;;;49.58;21.88;;;;;;;;;;4929587;29;20624;-60
2023/12/01 04:55:40;;;;;;;53.97;22.00;;;;;;;;;;4932649;29;20047;-59
2023/12/01 04:58:06;;;;;;;54.28;22.23;;;;;;;;;;4933763;29;20047;-60
2023/12/01 05:00:32;;;;;;;51.70;21.45;;;;;;;;;;4930955;29;20423;-59
2023/12/01 05:03:06;;;;;;;53.35;21.73;;;;;;;;;;4932213;29;20035;-59
2023/12/01 05:05:37;;;;;;;53.65;21.08;;;;;;;;;;4931396;29;20427;-60
2023/12/01 05:08:07;;;;;;;41.70;18.48;;;;;;;;;;4932012;29;20415;-59
2023/12/01 05:10:34;;;;;;;44.08;19.02;;;;;;;;;;4931331;29;20052;-60
2023/12/01 05:13:06;;;;;;;42.72;18.75;;;;;;;;;;4932288;29;20519;-61
2023/12/01 05:15:34;;;;;;;42.00;18.30;;;;;;;;;;4933063;29;20788;-59
2023/12/01 05:18:05;;;;;;;43.00;18.80;;;;;;;;;;4931694;29;20400;-60
2023/12/01 05:20:32;;;;;;;43.33;18.80;;;;;;;;;;4931998;29;20051;-59
2023/12/01 05:23:00;;;;;;;44.75;19.23;;;;;;;;;;4932990;29;20044;-61
2023/12/01 05:25:27;;;;;;;47.83;20.92;;;;;;;;;;4931678;29;20035;-61
2023/12/01 05:27:57;;;;;;;45.03;19.98;;;;;;;;;;4931979;29;20407;-60
2023/12/01 05:30:24;;;;;;;;;;;;;;;;;;4931787;29;20055;-60
2023/12/01 05:32:52;;;;;;;45.47;19.33;;;;;;;;;;4924498;29;19918;-59
2023/12/01 05:35:19;;;;;;;42.47;19.23;;;;;;;;;;4929008;29;20111;-59
2023/12/01 05:37:48;;;;;;;41.72;16.17;;;;;;;;;;4928324;29;20055;-60
2023/12/01 05:40:24;;;;;;;43.72;19.80;;;;;;;;;;4931570;29;20055;-58
2023/12/01 05:42:55;;;;;;;47.60;20.08;;;;;;;;;;4930976;29;20047;-58
2023/12/01 05:45:22;;;;;;;51.90;21.17;;;;;;;;;;4931644;29;20056;-59
2023/12/01 05:47:52;;;;;;;54.85;21.45;;;;;;;;;;4931432;29;20043;-59
2023/12/01 05:50:28;;;;;;;;;;;;;;;;;;4931246;29;20540;-58
2023/12/01 05:52:57;;;;;;;48.30;19.38;;;;;;;;;;4928183;29;20298;-60
2023/12/01 05:55:26;;;;;;;42.60;17.70;;;;;;;;;;4931789;29;20056;-59
2023/12/01 05:57:53;;;;;;;40.83;17.58;;;;;;;;;;4930843;29;20307;-59
2023/12/01 06:00:28;;;;;;;44.53;18.27;;;;;;;;;;4931077;29;20519;-58
2023/12/01 06:02:58;;;;;;;39.40;18.23;;;;;;;;;;4927521;29;20043;-59
2023/12/01 06:05:24;;;;;;;42.78;19.33;;;;;;;;;;4931525;29;20063;-58
2023/12/01 06:07:58;;;;;;;51.47;22.17;;;;;;;;;;4930646;29;20423;-59
2023/12/01 06:10:29;;;;;;;49.75;22.70;;;;;;;;;;4932470;29;20050;-59
2023/12/01 06:12:56;;;;;;;48.45;21.38;;;;;;;;;;4931498;29;20028;-59
2023/12/01 06:15:24;;;;;;;46.17;21.42;;;;;;;;;;4931876;29;20055;-61
2023/12/01 06:17:51;;;;;;;51.33;23.42;;;;;;;;;;4930906;29;20617;-58
2023/12/01 06:20:20;;;;;;;54.63;25.58;;;;;;;;;;4932284;29;20511;-59
2023/12/01 06:22:57;;;;;;;54.17;24.42;;;;;;;;;;4932060;29;20096;-60
2023/12/01 06:25:28;;;;;;;52.97;24.23;;;;;;;;;;4931952;29;20477;-59
2023/12/01 06:27:58;;;;;;;32.60;14.07;;;;;;;;;;4931733;29;20484;-57
2023/12/01 06:30:26;;;;;;;33.08;15.38;;;;;;;;;;4931453;29;20051;-58
2023/12/01 06:32:52;;;;;;;45.35;19.45;;;;;;;;;;4932894;29;20040;-58
2023/12/01 06:35:20;;;;;;;52.58;23.40;;;;;;;;;;4925520;29;20534;-59
2023/12/01 06:37:47;;;;;;;48.90;22.48;;;;;;;;;;4931377;29;20054;-59
2023/12/01 06:40:15;;;;;;;52.30;23.05;;;;;;;;;;4932223;29;20059;-59
2023/12/01 06:42:42;;;;;;;49.28;21.52;;;;;;;;;;4932429;29;20036;-59
2023/12/01 06:45:12;;;;;;;42.92;21.42;;;;;;;;;;4924018;29;20051;-59
2023/12/01 06:47:40;;;;;;;45.80;21.10;;;;;;;;;;4930507;29;20069;-59
2023/12/01 06:50:11;;;;;;;49.10;21.95;;;;;;;;;;4931864;29;20039;-60
2023/12/01 06:52:38;;;;;;;45.70;20.95;;;;;;;;;;4930633;29;20035;-58
2023/12/01 06:55:06;;;;;;;44.08;20.33;;;;;;;;;;4925831;29;20058;-60
2023/12/01 06:57:38;;;;;;;45.35;21.00;;;;;;;;;;4926073;29;20063;-59
2023/12/01 07:00:09;;;;;;;44.92;20.40;;;;;;;;;;4928789;29;20039;-60
2023/12/01 07:02:37;;;;;;;42.60;21.27;;;;;;;;;;4918020;29;20042;-61
2023/12/01 07:05:05;;;;;;;41.83;22.27;;;;;;;;;;4929381;29;20379;-60
2023/12/01 07:07:37;;;;;;;45.13;22.70;;;;;;;;;;4924644;29;20641;-60
2023/12/01 07:10:05;;;;;;;48.60;22.35;;;;;;;;;;4927147;29;20641;-60
2023/12/01 07:12:31;;;;;;;44.38;20.45;;;;;;;;;;4929943;29;20561;-61
2023/12/01 07:14:57;;;;;;;40.55;20.00;;;;;;;;;;4931093;29;20044;-60
2023/12/01 07:17:24;;;;;;;37.40;18.80;;;;;;;;;;4930158;29;20051;-60
2023/12/01 07:19:50;;;;;;;39.83;19.80;;;;;;;;;;4930150;29;20042;-59
2023/12/01 07:22:16;;;;;;;40.78;19.52;;;;;;;;;;4930776;29;20042;-60
2023/12/01 07:24:42;;;;;;;40.60;19.77;;;;;;;;;;4929676;29;20440;-61
2023/12/01 07:27:09;;;;;;;58.60;23.65;;;;;;;;;;4928925;29;20034;-60
2023/12/01 07:29:39;;;;;;;79.20;30.20;;;;;;;;;;4934444;29;20039;-60
2023/12/01 07:32:06;;;;;;;44.63;20.67;;;;;;;;;;4928013;29;20051;-61
2023/12/01 07:34:33;;;;;;;37.05;19.33;;;;;;;;;;4934560;29;20040;-60
2023/12/01 07:36:59;;;;;;;43.05;19.58;;;;;;;;;;4932427;29;20851;-60
2023/12/01 07:39:25;;;;;;;36.53;18.90;;;;;;;;;;4933521;29;20047;-61
2023/12/01 07:41:51;;;;;;;41.58;19.65;;;;;;;;;;4930056;29;20361;-60
2023/12/01 07:44:18;;;;;;;41.75;19.00;;;;;;;;;;4932474;29;20028;-59
2023/12/01 07:46:44;;;;;;;45.63;20.55;;;;;;;;;;4930151;29;20549;-59
2023/12/01 07:49:11;;;;;;;39.08;18.95;;;;;;;;;;4926995;29;20051;-60
2023/12/01 07:51:38;;;;;;;42.05;21.08;;;;;;;;;;4929203;29;20098;-61
2023/12/01 07:54:04;;;;;;;43.22;20.10;;;;;;;;;;4928383;29;20032;-60
2023/12/01 07:56:30;;;;;;;41.92;21.00;;;;;;;;;;4930611;29;20051;-60
2023/12/01 07:58:56;;;;;;;43.40;21.77;;;;;;;;;;4931276;29;20043;-61
2023/12/01 08:01:22;;;;;;;45.90;22.10;;;;;;;;;;4932545;29;20400;-60
2023/12/01 08:03:48;;;;;;;43.42;20.77;;;;;;;;;;4930429;29;20376;-61
2023/12/01 08:06:15;;;;;;;44.67;20.95;;;;;;;;;;4930632;29;20052;-60
2023/12/01 08:08:41;;;;;;;39.92;19.50;;;;;;;;;;4931169;29;20051;-60
2023/12/01 08:11:08;;;;;;;43.67;20.80;;;;;;;;;;4932140;29;20043;-60
2023/12/01 08:13:36;;;;;;;48.08;21.98;;;;;;;;;;4933998;29;20058;-59
2023/12/01 08:16:02;;;;;;;48.45;23.58;;;;;;;;;;4930622;29;20055;-60
2023/12/01 08:18:28;;;;;;;47.42;22.77;;;;;;;;;;4928182;29;20048;-61
2023/12/01 08:20:54;;;;;;;52.05;22.55;;;;;;;;;;4931640;29;20047;-60
2023/12/01 08:23:21;;;;;;;42.25;20.60;;;;;;;;;;4930827;29;20035;-61
2023/12/01 08:25:47;;;;;;;44.35;20.02;;;;;;;;;;4929966;29;20518;-60
2023/12/01 08:28:15;;;;;;;41.58;21.08;;;;;;;;;;4927907;29;20035;-59
2023/12/01 08:30:41;;;;;;;45.00;22.17;;;;;;;;;;4927014;29;20051;-59
2023/12/01 08:33:07;;;;;;;44.28;21.02;;;;;;;;;;4929164;29;20044;-61
2023/12/01 08:35:33;;;;;;;44.55;20.55;;;;;;;;;;4931136;29;20062;-60
2023/12/01 08:37:59;;;;;;;43.45;19.80;;;;;;;;;;4928712;29;20044;-59
2023/12/01 08:40:25;;;;;;;39.38;19.05;;;;;;;;;;4919478;29;20051;-60
2023/12/01 08:42:53;;;;;;;36.03;18.73;;;;;;;;;;4933415;29;20051;-59
2023/12/01 08:45:19;;;;;;;41.17;20.48;;;;;;;;;;4927789;29;20599;-60
2023/12/01 08:47:46;;;;;;;46.40;21.42;;;;;;;;;;4926089;29;20044;-60
2023/12/01 08:50:12;;;;;;;46.55;22.15;;;;;;;;;;4925240;29;20047;-59
2023/12/01 08:52:41;;;;;;;45.35;21.58;;;;;;;;;;4929288;29;20051;-60
2023/12/01 08:55:07;;;;;;;49.53;22.73;;;;;;;;;;4930605;29;20586;-60
2023/12/01 08:57:33;;;;;;;47.75;21.80;;;;;;;;;;4926429;29;20047;-61
2023/12/01 08:59:59;;;;;;;51.28;23.33;;;;;;;;;;4930875;29;20503;-61
2023/12/01 09:02:25;;;;;;;52.78;23.73;;;;;;;;;;4931195;29;20054;-61
2023/12/01 09:04:52;;;;;;;55.42;23.63;;;;;;;;;;4932177;29;20035;-62
2023/12/01 09:07:18;;;;;;;49.35;22.15;;;;;;;;;;4929656;29;20044;-62
2023/12/01 09:09:46;;;;;;;46.28;20.38;;;;;;;;;;4930511;29;20047;-62
2023/12/01 09:12:12;;;;;;;43.55;21.58;;;;;;;;;;4931973;29;20408;-62
2023/12/01 09:14:40;;;;;;;47.58;23.02;;;;;;;;;;4930524;29;20055;-61
2023/12/01 09:17:07;;;;;;;45.97;21.63;;;;;;;;;;4928061;29;20146;-62
2023/12/01 09:19:33;;;;;;;48.63;22.98;;;;;;;;;;4926542;29;20047;-60
2023/12/01 09:21:59;;;;;;;48.08;22.83;;;;;;;;;;4926208;29;20047;-62
2023/12/01 09:24:25;;;;;;;49.55;22.55;;;;;;;;;;4930010;29;20054;-61
2023/12/01 09:26:52;;;;;;;50.58;22.35;;;;;;;;;;4927727;29;20039;-60
2023/12/01 09:29:19;;;;;;;50.92;23.35;;;;;;;;;;4929829;29;20056;-60
2023/12/01 09:31:47;;;;;;;59.22;25.98;;;;;;;;;;4926838;29;20062;-60
2023/12/01 09:34:13;;;;;;;57.40;26.40;;;;;;;;;;4929720;29;20055;-60
2023/12/01 09:36:42;;;;;;;54.50;25.52;;;;;;;;;;4926092;29;20036;-60
2023/12/01 09:39:09;;;;;;;58.70;28.33;;;;;;;;;;4929528;29;20508;-61
2023/12/01 09:41:36;;;;;;;59.40;28.08;;;;;;;;;;4923933;29;20046;-61
2023/12/01 09:44:02;;;;;;;60.97;29.00;;;;;;;;;;4929588;29;20075;-61
2023/12/01 09:46:34;;;;;;;55.92;26.83;;;;;;;;;;4926586;29;20048;-62
2023/12/01 09:49:05;;;;;;;47.55;22.88;;;;;;;;;;4930116;29;20047;-61
2023/12/01 09:51:34;;;;;;;53.17;23.98;;;;;;;;;;4926477;29;20048;-62
2023/12/01 09:54:02;;;;;;;53.10;24.58;;;;;;;;;;4927967;29;20036;-61
2023/12/01 09:56:28;;;;;;;49.55;23.45;;;;;;;;;;4924865;29;20047;-59
2023/12/01 09:58:58;;;;;;;47.92;22.30;;;;;;;;;;4925194;29;20068;-60
2023/12/01 10:01:24;;;;;;;;;;;;;;;;;;4930399;29;20055;-61
2023/12/01 10:03:52;;;;;;;54.75;22.13;;;;;;;;;;4930732;29;19922;-61
2023/12/01 10:06:18;;;;;;;49.47;21.00;;;;;;;;;;4930022;29;20047;-60
2023/12/01 10:08:45;;;;;;;45.17;20.67;;;;;;;;;;4930573;29;20052;-61
2023/12/01 10:11:22;;;;;;;44.83;19.52;;;;;;;;;;4927798;29;20480;-61
2023/12/01 10:13:49;;;;;;;48.38;20.23;;;;;;;;;;4930391;29;20411;-60
2023/12/01 10:16:16;;;;;;;46.28;20.80;;;;;;;;;;4924433;29;20067;-61
2023/12/01 10:18:55;;;;;;;43.63;20.90;;;;;;;;;;4928883;29;20043;-63
2023/12/01 10:21:22;;;;;;;55.85;23.63;;;;;;;;;;4927654;29;20048;-61
2023/12/01 10:23:50;;;;;;;65.07;27.45;;;;;;;;;;4928738;29;20066;-63
2023/12/01 10:26:16;;;;;;;62.10;25.52;;;;;;;;;;4925759;29;20127;-60
2023/12/01 10:28:43;;;;;;;52.33;23.33;;;;;;;;;;4926670;29;20066;-60
2023/12/01 10:31:10;;;;;;;56.92;23.02;;;;;;;;;;4926894;29;20055;-61
2023/12/01 10:33:36;;;;;;;48.63;22.90;;;;;;;;;;4927385;29;20035;-60
2023/12/01 10:36:08;;;;;;;54.38;23.33;;;;;;;;;;4922625;29;20055;-60
2023/12/01 10:38:35;;;;;;;57.05;25.38;;;;;;;;;;4924926;29;20050;-60
2023/12/01 10:41:03;;;;;;;60.75;27.23;;;;;;;;;;4930254;29;20051;-63
2023/12/01 10:43:30;;;;;;;71.85;31.70;;;;;;;;;;4925851;29;21345;-60
2023/12/01 10:46:02;;;;;;;70.80;30.95;;;;;;;;;;4927738;29;20043;-61
2023/12/01 10:48:30;;;;;;;74.45;32.83;;;;;;;;;;4928084;29;20044;-60
2023/12/01 10:50:56;;;;;;;63.25;27.55;;;;;;;;;;4926611;29;20036;-60
2023/12/01 10:53:26;;;;;;;55.33;26.05;;;;;;;;;;4921358;29;20439;-60
2023/12/01 10:55:54;;;;;;;61.55;25.90;;;;;;;;;;4929162;29;20052;-61
2023/12/01 10:58:22;;;;;;;61.30;27.50;;;;;;;;;;4929484;29;20511;-60
2023/12/01 11:00:49;;;;;;;55.67;23.85;;;;;;;;;;4930148;29;20403;-61
2023/12/01 11:03:24;;;;;;;45.85;22.55;;;;;;;;;;4922402;28;20538;-61
2023/12/01 11:06:06;;;;;;;54.22;24.35;;;;;;;;;;4927908;29;20400;-60
2023/12/01 11:08:45;;;;;;;62.35;25.70;;;;;;;;;;4929259;29;20365;-61
2023/12/01 11:11:39;;;;;;;60.73;26.97;;;;;;;;;;4927542;29;20040;-60
2023/12/01 11:14:20;;;;;;;50.80;23.98;;;;;;;;;;4917834;29;20051;-61
2023/12/01 11:16:47;;;;;;;47.92;22.10;;;;;;;;;;4926647;29;20051;-60
2023/12/01 11:19:15;;;;;;;52.78;23.20;;;;;;;;;;4925773;29;20246;-60
2023/12/01 11:21:45;;;;;;;56.83;22.85;;;;;;;;;;4927925;29;20028;-60
2023/12/01 11:24:25;;;;;;;53.72;23.05;;;;;;;;;;4924183;29;20074;-59
2023/12/01 11:26:55;;;;;;;51.80;20.65;;;;;;;;;;4925374;29;20403;-61
2023/12/01 11:29:34;;;;;;;;;;;;;;;;;;4924713;29;20420;-61
2023/12/01 11:32:00;;;;;;;50.75;19.80;;;;;;;;;;4927010;29;20302;-61
2023/12/01 11:34:26;;;;;;;48.47;19.85;;;;;;;;;;4926181;29;20066;-61
2023/12/01 11:36:53;;;;;;;57.85;23.30;;;;;;;;;;4923397;29;20416;-61
2023/12/01 11:39:20;;;;;;;58.30;23.48;;;;;;;;;;4925826;29;20063;-62
2023/12/01 11:41:48;;;;;;;48.58;20.38;;;;;;;;;;4927223;29;20403;-60
2023/12/01 11:44:16;;;;;;;43.70;19.83;;;;;;;;;;4919754;29;20056;-60
2023/12/01 11:46:44;;;;;;;44.45;20.40;;;;;;;;;;4923501;29;20370;-60
2023/12/01 11:49:10;;;;;;;45.70;20.80;;;;;;;;;;4925741;29;20040;-61
2023/12/01 11:51:36;;;;;;;45.53;19.90;;;;;;;;;;4927243;29;20127;-60
2023/12/01 11:54:04;;;;;;;68.18;29.17;;;;;;;;;;4925596;29;20052;-62
2023/12/01 11:56:33;;;;;;;50.90;24.23;;;;;;;;;;4926167;29;20058;-61
2023/12/01 11:59:00;;;;;;;44.25;21.55;;;;;;;;;;4931473;29;20447;-61
2023/12/01 12:01:26;;;;;;;45.95;20.67;;;;;;;;;;4927370;29;20052;-61
2023/12/01 12:03:56;;;;;;;43.13;19.33;;;;;;;;;;4929251;29;20057;-62
2023/12/01 12:06:23;;;;;;;;;;;;;;;;;;4928687;29;20056;-60
2023/12/01 12:08:53;;;;;;;44.42;19.10;;;;;;;;;;4929340;29;20401;-61
2023/12/01 12:11:20;;;;;;;44.22;20.30;;;;;;;;;;4927217;29;20411;-60
2023/12/01 12:13:58;;;;;;;45.17;20.70;;;;;;;;;;4930133;29;20047;-60
2023/12/01 12:16:24;;;;;;;43.38;19.80;;;;;;;;;;4928305;29;20056;-59
2023/12/01 12:18:50;;;;;;;44.58;20.75;;;;;;;;;;4934294;29;20035;-62
2023/12/01 12:21:17;;;;;;;49.38;21.38;;;;;;;;;;4934552;29;20173;-61
2023/12/01 12:23:43;;;;;;;46.10;21.13;;;;;;;;;;4930841;29;20051;-60
2023/12/01 12:26:17;;;;;;;46.55;20.25;;;;;;;;;;4930161;29;20044;-60
2023/12/01 12:28:48;;;;;;;44.10;21.02;;;;;;;;;;4930766;29;20360;-61
2023/12/01 12:31:14;;;;;;;42.00;20.00;;;;;;;;;;4929743;29;20059;-60
2023/12/01 12:33:41;;;;;;;39.25;19.63;;;;;;;;;;4933417;29;20044;-61
2023/12/01 12:36:07;;;;;;;47.35;21.48;;;;;;;;;;4931519;29;20044;-61
2023/12/01 12:38:33;;;;;;;24.63;12.00;;;;;;;;;;4929603;29;20032;-59
2023/12/01 12:41:01;;;;;;;57.03;23.42;;;;;;;;;;4932206;29;20058;-60
2023/12/01 12:43:27;;;;;;;51.40;21.85;;;;;;;;;;4930675;29;20043;-63
2023/12/01 12:46:02;;;;;;;47.90;22.08;;;;;;;;;;4928880;29;20038;-61
2023/12/01 12:48:31;;;;;;;48.65;22.45;;;;;;;;;;4927960;29;20577;-63
2023/12/01 12:50:57;;;;;;;53.50;23.48;;;;;;;;;;4932364;29;20036;-60
2023/12/01 12:53:23;;;;;;;51.42;23.45;;;;;;;;;;4934034;29;20043;-61
2023/12/01 12:55:49;;;;;;;49.28;21.77;;;;;;;;;;4933539;29;20052;-60
2023/12/01 12:58:15;;;;;;;47.00;21.05;;;;;;;;;;4930398;29;20035;-61
2023/12/01 13:00:42;;;;;;;43.97;21.05;;;;;;;;;;4924899;29;20044;-62
2023/12/01 13:03:08;;;;;;;45.90;19.67;;;;;;;;;;4933143;29;20048;-61
2023/12/01 13:05:35;;;;;;;48.70;20.38;;;;;;;;;;4930742;29;20031;-62
2023/12/01 13:08:01;;;;;;;47.00;19.92;;;;;;;;;;4930464;29;20086;-64
2023/12/01 13:10:27;;;;;;;61.40;23.48;;;;;;;;;;4933794;29;20039;-64
2023/12/01 13:12:53;;;;;;;60.45;22.15;;;;;;;;;;4934719;29;20440;-63
2023/12/01 13:15:19;;;;;;;56.92;21.88;;;;;;;;;;4932833;29;20039;-61
2023/12/01 13:17:45;;;;;;;59.28;24.17;;;;;;;;;;4930614;29;20074;-63
2023/12/01 13:20:12;;;;;;;65.55;24.98;;;;;;;;;;4933889;29;20035;-62
2023/12/01 13:22:39;;;;;;;63.53;25.27;;;;;;;;;;4931906;29;20058;-64
2023/12/01 13:25:06;;;;;;;52.80;23.80;;;;;;;;;;4926772;29;20048;-62
2023/12/01 13:27:32;;;;;;;51.85;23.23;;;;;;;;;;4932339;29;20031;-62
2023/12/01 13:29:58;;;;;;;47.88;22.05;;;;;;;;;;4928676;29;20075;-61
2023/12/01 13:32:24;;;;;;;52.63;23.95;;;;;;;;;;4931881;29;20056;-63
2023/12/01 13:34:51;;;;;;;51.03;23.45;;;;;;;;;;4933367;29;20055;-62
2023/12/01 13:37:17;;;;;;;51.92;22.65;;;;;;;;;;4926602;29;20059;-62
2023/12/01 13:39:43;;;;;;;58.53;23.52;;;;;;;;;;4927018;29;20036;-63
2023/12/01 13:42:12;;;;;;;46.15;20.38;;;;;;;;;;4930081;29;20469;-62
2023/12/01 13:44:38;;;;;;;45.35;20.45;;;;;;;;;;4926918;29;20043;-63
2023/12/01 13:47:04;;;;;;;42.30;20.63;;;;;;;;;;4934611;29;20027;-63
2023/12/01 13:49:30;;;;;;;39.40;19.23;;;;;;;;;;4931355;29;20044;-63
2023/12/01 13:51:56;;;;;;;40.55;19.17;;;;;;;;;;4927310;29;20039;-63
2023/12/01 13:54:23;;;;;;;38.55;19.90;;;;;;;;;;4929697;29;20059;-65
2023/12/01 13:56:49;;;;;;;46.78;22.55;;;;;;;;;;4925237;29;20056;-64
2023/12/01 13:59:15;;;;;;;43.38;21.08;;;;;;;;;;4929627;29;20067;-63
2023/12/01 14:01:41;;;;;;;38.03;19.20;;;;;;;;;;4929389;29;20031;-62
2023/12/01 14:04:07;;;;;;;39.15;18.92;;;;;;;;;;4934623;29;20518;-61
2023/12/01 14:06:34;;;;;;;38.55;18.27;;;;;;;;;;4929556;29;20040;-65
2023/12/01 14:09:00;;;;;;;38.83;16.35;;;;;;;;;;4932084;29;20384;-65
2023/12/01 14:11:26;;;;;;;32.08;16.02;;;;;;;;;;4927447;29;20044;-63
2023/12/01 14:13:52;;;;;;;34.70;16.45;;;;;;;;;;4932650;29;20040;-61
2023/12/01 14:16:19;;;;;;;35.92;17.50;;;;;;;;;;4929965;29;20059;-62
2023/12/01 14:18:47;;;;;;;35.35;17.02;;;;;;;;;;4924107;29;20423;-64
2023/12/01 14:21:13;;;;;;;39.17;18.35;;;;;;;;;;4924789;29;20440;-66